M I D A S
Marine Information and Data Acquisition System
Tripno 1928 of the Zeeleeuw from 2010-07-29 06:54:23 to 2010-07-30 10:55:56
Back to CruiseResearch ActivitiesStationsMapUnderway DataData graphs

EquipmentUnitsComment
TimeDGPSUTC
LatitudeDGPSDM.mWGS84
LongitudeDGPSDM.mWGS84
HeadingGyrodeg 
SOGDGPSknotsSpeed over ground
COGDGPSdegCourse over ground
DepthEcho soundermeters200 kHz
Missing or incorrect values are displayed as -999
Navigation data collected by the RV Zeeleeuw from 2010-07-29 02:04:57 to 2010-07-30 12:59:40
                                                                                    Next 1000 lines
Time Latitude Longitude Heading SOG COG Depth
2010-07-29 02:05:07 51°13.662 2°55.961 127 0.1 332 -999
2010-07-29 02:05:12 51°13.662 2°55.961 126.9 -999 340 -999
2010-07-29 02:05:17 51°13.662 2°55.961 126.9 -999 347 -999
2010-07-29 02:05:22 51°13.662 2°55.961 126.9 -999 338 -999
2010-07-29 02:05:27 51°13.662 2°55.961 127 -999 155 -999
2010-07-29 02:05:32 51°13.662 2°55.961 127 -999 107 -999
2010-07-29 02:05:37 51°13.662 2°55.961 127.1 -999 293 -999
2010-07-29 02:05:42 51°13.662 2°55.961 127.1 0.1 342 -999
2010-07-29 02:05:47 51°13.662 2°55.961 127.2 -999 331 -999
2010-07-29 02:05:52 51°13.662 2°55.961 127.2 0.1 344 -999
2010-07-29 02:05:57 51°13.662 2°55.961 127.2 0.1 331 -999
2010-07-29 02:06:02 51°13.662 2°55.961 127.1 -999 255 -999
2010-07-29 02:06:07 51°13.662 2°55.961 127 -999 338 -999
2010-07-29 02:06:12 51°13.662 2°55.961 126.9 -999 347 -999
2010-07-29 02:06:17 51°13.662 2°55.961 126.8 -999 293 -999
2010-07-29 02:06:22 51°13.662 2°55.961 126.8 0.1 177 -999
2010-07-29 02:06:27 51°13.662 2°55.961 126.8 0.1 165 -999
2010-07-29 02:06:32 51°13.662 2°55.961 126.9 -999 269 -999
2010-07-29 02:06:37 51°13.662 2°55.961 126.9 -999 205 -999
2010-07-29 02:06:42 51°13.662 2°55.961 126.9 -999 336 -999
2010-07-29 02:06:47 51°13.662 2°55.961 126.7 -999 340 -999
2010-07-29 02:06:52 51°13.662 2°55.96 126.6 -999 324 -999
2010-07-29 02:06:57 51°13.662 2°55.96 126.3 -999 187 -999
2010-07-29 02:07:02 51°13.662 2°55.961 126.1 -999 179 -999
2010-07-29 02:07:07 51°13.662 2°55.96 125.9 0.1 340 -999
2010-07-29 02:07:12 51°13.662 2°55.961 125.9 -999 336 -999
2010-07-29 02:07:17 51°13.662 2°55.961 125.9 0.1 160 -999
2010-07-29 02:07:22 51°13.662 2°55.961 125.9 -999 175 -999
2010-07-29 02:07:27 51°13.662 2°55.961 126.1 -999 1 -999
2010-07-29 02:07:32 51°13.662 2°55.961 126.4 -999 162 -999
2010-07-29 02:07:37 51°13.662 2°55.961 126.7 0.1 167 -999
2010-07-29 02:07:42 51°13.662 2°55.961 126.9 -999 332 -999
2010-07-29 02:07:47 51°13.662 2°55.961 127.1 -999 157 -999
2010-07-29 02:07:52 51°13.662 2°55.961 127.3 -999 153 -999
2010-07-29 02:07:57 51°13.662 2°55.961 127.6 -999 352 -999
2010-07-29 02:08:02 51°13.662 2°55.961 127.7 -999 123 -999
2010-07-29 02:08:07 51°13.662 2°55.961 127.8 -999 343 -999
2010-07-29 02:08:12 51°13.662 2°55.961 127.8 -999 115 -999
2010-07-29 02:08:17 51°13.662 2°55.961 127.9 0.1 342 -999
2010-07-29 02:08:22 51°13.662 2°55.961 128 -999 344 -999
2010-07-29 02:08:27 51°13.662 2°55.961 128.1 -999 354 -999
2010-07-29 02:08:32 51°13.662 2°55.961 128.1 -999 337 -999
2010-07-29 02:08:37 51°13.662 2°55.961 128.1 -999 189 -999
2010-07-29 02:08:42 51°13.662 2°55.961 128.1 0.1 342 -999
2010-07-29 02:08:47 51°13.662 2°55.961 128 -999 209 -999
2010-07-29 02:08:52 51°13.662 2°55.961 127.8 -999 228 -999
2010-07-29 02:08:57 51°13.662 2°55.961 127.6 -999 269 -999
2010-07-29 02:09:02 51°13.662 2°55.961 127.4 0.1 340 -999
2010-07-29 02:09:07 51°13.662 2°55.961 127.3 -999 190 -999
2010-07-29 02:09:12 51°13.662 2°55.961 127.3 -999 286 -999
2010-07-29 02:09:17 51°13.662 2°55.961 127.1 -999 317 -999
2010-07-29 02:09:22 51°13.662 2°55.961 127.1 -999 329 -999
2010-07-29 02:09:27 51°13.662 2°55.961 126.9 0.1 337 -999
2010-07-29 02:09:32 51°13.662 2°55.961 126.8 -999 165 -999
2010-07-29 02:09:37 51°13.662 2°55.961 126.8 -999 183 -999
2010-07-29 02:09:42 51°13.662 2°55.961 126.6 -999 10 -999
2010-07-29 02:09:47 51°13.663 2°55.961 126.5 -999 226 -999
2010-07-29 02:09:52 51°13.663 2°55.961 126.5 -999 333 -999
2010-07-29 02:09:57 51°13.662 2°55.961 126.5 0.1 172 -999
2010-07-29 02:10:02 51°13.662 2°55.961 126.5 0.1 165 -999
2010-07-29 02:10:07 51°13.663 2°55.961 126.5 -999 329 -999
2010-07-29 02:10:12 51°13.663 2°55.961 126.6 0.1 342 -999
2010-07-29 02:10:17 51°13.662 2°55.961 126.6 -999 132 -999
2010-07-29 02:10:22 51°13.662 2°55.961 126.7 -999 36 -999
2010-07-29 02:10:27 51°13.662 2°55.961 126.9 -999 163 -999
2010-07-29 02:10:32 51°13.662 2°55.961 127 -999 162 -999
2010-07-29 02:10:37 51°13.662 2°55.961 127 0.1 155 -999
2010-07-29 02:10:42 51°13.662 2°55.961 127 0.1 153 -999
2010-07-29 02:10:47 51°13.662 2°55.961 127.1 0.1 164 -999
2010-07-29 02:10:52 51°13.662 2°55.961 127.2 0.1 164 -999
2010-07-29 02:10:57 51°13.662 2°55.961 127.4 -999 324 -999
2010-07-29 02:11:02 51°13.662 2°55.961 127.5 -999 171 -999
2010-07-29 02:11:07 51°13.662 2°55.961 127.6 -999 307 -999
2010-07-29 02:11:12 51°13.662 2°55.961 127.6 -999 296 -999
2010-07-29 02:11:17 51°13.662 2°55.961 127.6 -999 264 -999
2010-07-29 02:11:22 51°13.662 2°55.961 127.4 -999 166 -999
2010-07-29 02:11:27 51°13.662 2°55.961 127.3 -999 172 -999
2010-07-29 02:11:32 51°13.662 2°55.961 127.2 -999 177 -999
2010-07-29 02:11:37 51°13.662 2°55.961 127.1 -999 307 -999
2010-07-29 02:11:42 51°13.662 2°55.961 127.1 -999 223 -999
2010-07-29 02:11:47 51°13.662 2°55.961 127.1 0.1 165 -999
2010-07-29 02:11:52 51°13.662 2°55.961 127.1 -999 162 -999
2010-07-29 02:11:57 51°13.662 2°55.961 127.1 0.1 170 -999
2010-07-29 02:12:02 51°13.662 2°55.961 127.1 -999 254 -999
2010-07-29 02:12:07 51°13.662 2°55.96 127.1 -999 347 -999
2010-07-29 02:12:12 51°13.662 2°55.96 127.1 -999 134 -999
2010-07-29 02:12:17 51°13.662 2°55.96 127.2 0.1 177 -999
2010-07-29 02:12:22 51°13.662 2°55.96 127.2 0.1 162 -999
2010-07-29 02:12:27 51°13.662 2°55.96 127.1 0.1 173 -999
2010-07-29 02:12:32 51°13.662 2°55.96 127 0.1 332 -999
2010-07-29 02:12:37 51°13.662 2°55.96 126.9 -999 282 -999
2010-07-29 02:12:42 51°13.662 2°55.96 126.6 0.1 333 -999
2010-07-29 02:12:47 51°13.662 2°55.96 126.5 -999 324 -999
2010-07-29 02:12:52 51°13.662 2°55.96 126.4 0.1 168 -999
2010-07-29 02:12:57 51°13.662 2°55.96 126.3 -999 73 -999
2010-07-29 02:13:02 51°13.662 2°55.96 126.2 -999 37 -999
2010-07-29 02:13:07 51°13.662 2°55.96 126.2 -999 2 -999
2010-07-29 02:13:12 51°13.662 2°55.96 126.2 -999 337 -999
2010-07-29 02:13:17 51°13.662 2°55.96 126.2 -999 18 -999
2010-07-29 02:13:22 51°13.662 2°55.96 126.3 -999 358 -999
2010-07-29 02:13:27 51°13.662 2°55.96 126.4 0.1 339 -999
2010-07-29 02:13:32 51°13.662 2°55.96 126.7 -999 164 -999
2010-07-29 02:13:37 51°13.662 2°55.96 127.1 0.1 169 -999
2010-07-29 02:13:42 51°13.662 2°55.96 127.2 0.1 169 -999
2010-07-29 02:13:47 51°13.662 2°55.96 127.5 -999 151 -999
2010-07-29 02:13:52 51°13.662 2°55.961 127.7 0.1 160 -999
2010-07-29 02:13:57 51°13.662 2°55.961 127.8 -999 169 -999
2010-07-29 02:14:02 51°13.662 2°55.961 127.8 -999 173 -999
2010-07-29 02:14:07 51°13.662 2°55.961 127.6 -999 357 -999
2010-07-29 02:14:12 51°13.662 2°55.961 127.5 0.1 341 -999
2010-07-29 02:14:17 51°13.662 2°55.961 127.3 -999 195 -999
2010-07-29 02:14:22 51°13.662 2°55.961 127.1 -999 268 -999
2010-07-29 02:14:27 51°13.662 2°55.961 127.1 -999 197 -999
2010-07-29 02:14:32 51°13.662 2°55.961 127.1 0.1 333 -999
2010-07-29 02:14:37 51°13.662 2°55.961 127.1 -999 246 -999
2010-07-29 02:14:42 51°13.662 2°55.961 127 -999 195 -999
2010-07-29 02:14:47 51°13.662 2°55.961 127 -999 157 -999
2010-07-29 02:14:52 51°13.662 2°55.961 127.1 0.1 151 -999
2010-07-29 02:14:57 51°13.663 2°55.961 127.6 -999 166 -999
2010-07-29 02:15:02 51°13.663 2°55.961 128 0.1 34 -999
2010-07-29 02:15:07 51°13.663 2°55.961 128.4 -999 5 -999
2010-07-29 02:15:12 51°13.662 2°55.961 128.5 0.2 171 -999
2010-07-29 02:15:17 51°13.662 2°55.961 128.6 0.1 132 -999
2010-07-29 02:15:22 51°13.663 2°55.961 128.6 0.1 335 -999
2010-07-29 02:15:27 51°13.662 2°55.961 128.6 0.1 323 -999
2010-07-29 02:15:32 51°13.662 2°55.961 128.2 -999 173 -999
2010-07-29 02:15:37 51°13.662 2°55.961 127.9 0.1 318 -999
2010-07-29 02:15:42 51°13.662 2°55.961 127.4 0.1 1 -999
2010-07-29 02:15:47 51°13.663 2°55.961 127.1 0.1 343 -999
2010-07-29 02:15:52 51°13.663 2°55.961 126.6 -999 211 -999
2010-07-29 02:15:57 51°13.663 2°55.961 126.4 -999 182 -999
2010-07-29 02:16:02 51°13.663 2°55.961 126.4 -999 270 -999
2010-07-29 02:16:07 51°13.663 2°55.961 126.2 -999 220 -999
2010-07-29 02:16:12 51°13.662 2°55.961 126.1 0.1 178 -999
2010-07-29 02:16:17 51°13.663 2°55.961 126.1 -999 328 -999
2010-07-29 02:16:22 51°13.663 2°55.961 126.2 -999 281 -999
2010-07-29 02:16:27 51°13.662 2°55.961 126.2 -999 154 -999
2010-07-29 02:16:32 51°13.662 2°55.961 126.4 0.1 159 -999
2010-07-29 02:16:37 51°13.662 2°55.961 126.6 -999 107 -999
2010-07-29 02:16:42 51°13.662 2°55.961 127.1 -999 179 -999
2010-07-29 02:16:47 51°13.662 2°55.961 127.6 -999 -999 -999
2010-07-29 02:16:52 51°13.662 2°55.961 128 -999 92 -999
2010-07-29 02:16:57 51°13.662 2°55.961 128.1 0.1 184 -999
2010-07-29 02:17:02 51°13.662 2°55.961 128.3 -999 1 -999
2010-07-29 02:17:07 51°13.662 2°55.961 128.3 -999 6 -999
2010-07-29 02:17:12 51°13.662 2°55.961 128.4 -999 197 -999
2010-07-29 02:17:17 51°13.662 2°55.961 128.4 -999 296 -999
2010-07-29 02:17:22 51°13.662 2°55.961 128.3 0.1 343 -999
2010-07-29 02:17:27 51°13.662 2°55.961 128.3 0.1 173 -999
2010-07-29 02:17:32 51°13.662 2°55.961 128.3 0.1 176 -999
2010-07-29 02:17:37 51°13.662 2°55.961 128.3 -999 107 -999
2010-07-29 02:17:42 51°13.662 2°55.961 128.3 0.1 182 -999
2010-07-29 02:17:47 51°13.662 2°55.961 128.3 -999 146 -999
2010-07-29 02:17:52 51°13.662 2°55.961 128.3 -999 263 -999
2010-07-29 02:17:57 51°13.662 2°55.961 128.3 -999 14 -999
2010-07-29 02:18:02 51°13.662 2°55.961 128.1 -999 223 -999
2010-07-29 02:18:07 51°13.662 2°55.961 127.8 0.1 173 -999
2010-07-29 02:18:12 51°13.662 2°55.961 127.6 -999 215 -999
2010-07-29 02:18:17 51°13.663 2°55.961 127.4 0.1 331 -999
2010-07-29 02:18:22 51°13.662 2°55.961 127.1 0.1 322 -999
2010-07-29 02:18:27 51°13.662 2°55.961 126.8 -999 207 -999
2010-07-29 02:18:32 51°13.662 2°55.961 126.5 -999 262 -999
2010-07-29 02:18:37 51°13.663 2°55.961 126.4 0.1 334 -999
2010-07-29 02:18:42 51°13.662 2°55.961 126.2 0.1 323 -999
2010-07-29 02:18:47 51°13.662 2°55.961 126 -999 179 -999
2010-07-29 02:18:52 51°13.662 2°55.961 125.9 -999 335 -999
2010-07-29 02:18:57 51°13.662 2°55.961 125.9 -999 345 -999
2010-07-29 02:19:02 51°13.662 2°55.961 126 0.1 338 -999
2010-07-29 02:19:07 51°13.662 2°55.961 126.2 -999 307 -999
2010-07-29 02:19:12 51°13.662 2°55.961 126.3 0.1 160 -999
2010-07-29 02:19:17 51°13.662 2°55.961 126.5 0.1 165 -999
2010-07-29 02:19:22 51°13.662 2°55.961 126.6 0.1 340 -999
2010-07-29 02:19:27 51°13.662 2°55.961 126.8 -999 354 -999
2010-07-29 02:19:32 51°13.662 2°55.961 126.8 -999 325 -999
2010-07-29 02:19:37 51°13.662 2°55.961 126.8 -999 351 -999
2010-07-29 02:19:42 51°13.662 2°55.961 126.8 -999 164 -999
2010-07-29 02:19:47 51°13.662 2°55.961 126.7 -999 2 -999
2010-07-29 02:19:52 51°13.662 2°55.961 126.4 -999 332 -999
2010-07-29 02:19:57 51°13.662 2°55.961 126.3 -999 121 -999
2010-07-29 02:20:02 51°13.662 2°55.961 126.1 -999 328 -999
2010-07-29 02:20:07 51°13.662 2°55.961 125.9 -999 352 -999
2010-07-29 02:20:12 51°13.662 2°55.961 125.9 -999 229 -999
2010-07-29 02:20:17 51°13.662 2°55.961 125.8 0.1 153 -999
2010-07-29 02:20:22 51°13.662 2°55.961 125.7 0.1 158 -999
2010-07-29 02:20:27 51°13.662 2°55.961 125.7 -999 256 -999
2010-07-29 02:20:32 51°13.662 2°55.961 125.8 -999 336 -999
2010-07-29 02:20:37 51°13.662 2°55.961 125.9 -999 4 -999
2010-07-29 02:20:42 51°13.662 2°55.961 125.9 -999 125 -999
2010-07-29 02:20:47 51°13.662 2°55.961 126.1 -999 150 -999
2010-07-29 02:20:52 51°13.662 2°55.961 126.3 -999 283 -999
2010-07-29 02:20:57 51°13.662 2°55.961 126.4 -999 325 -999
2010-07-29 02:21:02 51°13.662 2°55.961 126.5 0.1 326 -999
2010-07-29 02:21:07 51°13.662 2°55.961 126.5 -999 332 -999
2010-07-29 02:21:12 51°13.662 2°55.961 126.5 -999 335 -999
2010-07-29 02:21:17 51°13.662 2°55.961 126.5 -999 286 -999
2010-07-29 02:21:22 51°13.662 2°55.961 126.5 0.1 170 -999
2010-07-29 02:21:27 51°13.662 2°55.961 126.4 -999 203 -999
2010-07-29 02:21:32 51°13.662 2°55.962 126.4 0.1 161 -999
2010-07-29 02:21:37 51°13.662 2°55.961 126.4 -999 304 -999
2010-07-29 02:21:42 51°13.662 2°55.961 126.1 -999 34 -999
2010-07-29 02:21:47 51°13.662 2°55.961 126.1 -999 166 -999
2010-07-29 02:21:52 51°13.662 2°55.961 126 -999 57 -999
2010-07-29 02:21:57 51°13.662 2°55.961 126 -999 21 -999
2010-07-29 02:22:02 51°13.662 2°55.961 126 -999 159 -999
2010-07-29 02:22:07 51°13.662 2°55.961 126 -999 13 -999
2010-07-29 02:22:12 51°13.662 2°55.961 126.1 -999 207 -999
2010-07-29 02:22:17 51°13.662 2°55.961 126.2 0.1 152 -999
2010-07-29 02:22:22 51°13.662 2°55.962 126.3 0.1 166 -999
2010-07-29 02:22:27 51°13.662 2°55.962 126.4 0.1 159 -999
2010-07-29 02:22:32 51°13.662 2°55.962 126.6 0.1 173 -999
2010-07-29 02:22:37 51°13.662 2°55.962 126.8 -999 183 -999
2010-07-29 02:22:42 51°13.662 2°55.962 127 -999 298 -999
2010-07-29 02:22:47 51°13.662 2°55.962 127.1 0.1 170 -999
2010-07-29 02:22:52 51°13.662 2°55.962 127.1 0.1 161 -999
2010-07-29 02:22:57 51°13.662 2°55.962 127.1 -999 93 -999
2010-07-29 02:23:02 51°13.662 2°55.961 127.2 0.1 163 -999
2010-07-29 02:23:07 51°13.662 2°55.961 127.3 -999 283 -999
2010-07-29 02:23:12 51°13.662 2°55.961 127.3 -999 171 -999
2010-07-29 02:23:17 51°13.662 2°55.961 127.3 -999 275 -999
2010-07-29 02:23:22 51°13.662 2°55.961 127.3 -999 130 -999
2010-07-29 02:23:27 51°13.662 2°55.961 127.2 -999 150 -999
2010-07-29 02:23:32 51°13.663 2°55.961 127.1 -999 332 -999
2010-07-29 02:23:37 51°13.663 2°55.961 127.1 0.1 334 -999
2010-07-29 02:23:42 51°13.663 2°55.961 127 -999 326 -999
2010-07-29 02:23:47 51°13.663 2°55.961 126.8 -999 310 -999
2010-07-29 02:23:52 51°13.663 2°55.96 126.5 -999 304 -999
2010-07-29 02:23:57 51°13.663 2°55.96 126.3 -999 318 -999
2010-07-29 02:24:02 51°13.663 2°55.96 126 0.1 339 -999
2010-07-29 02:24:07 51°13.663 2°55.96 125.8 -999 213 -999
2010-07-29 02:24:12 51°13.663 2°55.96 125.7 0.1 174 -999
2010-07-29 02:24:17 51°13.663 2°55.96 125.7 -999 174 -999
2010-07-29 02:24:22 51°13.663 2°55.96 125.7 -999 183 -999
2010-07-29 02:24:27 51°13.663 2°55.96 125.7 0.1 156 -999
2010-07-29 02:24:32 51°13.663 2°55.96 125.7 -999 170 -999
2010-07-29 02:24:37 51°13.662 2°55.96 125.7 -999 161 -999
2010-07-29 02:24:42 51°13.662 2°55.96 125.9 -999 154 -999
2010-07-29 02:24:47 51°13.662 2°55.96 126.1 -999 159 -999
2010-07-29 02:24:52 51°13.662 2°55.96 126.2 -999 231 -999
2010-07-29 02:24:57 51°13.662 2°55.96 126.4 0.1 164 -999
2010-07-29 02:25:02 51°13.663 2°55.96 126.6 0.1 170 -999
2010-07-29 02:25:07 51°13.663 2°55.96 126.8 0.1 334 -999
2010-07-29 02:25:12 51°13.662 2°55.96 126.9 0.1 165 -999
2010-07-29 02:25:17 51°13.662 2°55.96 127 0.1 150 -999
2010-07-29 02:25:22 51°13.662 2°55.96 127 -999 206 -999
2010-07-29 02:25:27 51°13.662 2°55.96 127 -999 62 -999
2010-07-29 02:25:32 51°13.662 2°55.96 127 0.1 339 -999
2010-07-29 02:25:37 51°13.662 2°55.96 126.9 -999 15 -999
2010-07-29 02:25:42 51°13.662 2°55.96 126.7 -999 332 -999
2010-07-29 02:25:47 51°13.662 2°55.96 126.7 -999 352 -999
2010-07-29 02:25:52 51°13.662 2°55.96 126.7 -999 317 -999
2010-07-29 02:25:57 51°13.662 2°55.96 126.7 0.1 165 -999
2010-07-29 02:26:02 51°13.662 2°55.96 126.7 -999 281 -999
2010-07-29 02:26:07 51°13.662 2°55.96 126.7 -999 351 -999
2010-07-29 02:26:12 51°13.662 2°55.96 126.9 -999 183 -999
2010-07-29 02:26:17 51°13.662 2°55.96 126.9 -999 173 -999
2010-07-29 02:26:22 51°13.662 2°55.96 126.9 -999 164 -999
2010-07-29 02:26:27 51°13.662 2°55.96 126.9 -999 175 -999
2010-07-29 02:26:32 51°13.662 2°55.96 126.9 0.1 355 -999
2010-07-29 02:26:37 51°13.662 2°55.96 127 -999 155 -999
2010-07-29 02:26:42 51°13.662 2°55.96 127.1 -999 113 -999
2010-07-29 02:26:47 51°13.662 2°55.96 127.1 -999 151 -999
2010-07-29 02:26:52 51°13.662 2°55.959 127.2 -999 5 -999
2010-07-29 02:26:57 51°13.662 2°55.959 127.3 0.1 349 -999
2010-07-29 02:27:02 51°13.662 2°55.959 127.6 0.1 344 -999
2010-07-29 02:27:07 51°13.662 2°55.959 127.8 -999 108 -999
2010-07-29 02:27:12 51°13.662 2°55.959 128.1 -999 350 -999
2010-07-29 02:27:17 51°13.662 2°55.96 128.2 0.1 173 -999
2010-07-29 02:27:22 51°13.662 2°55.96 128.3 -999 29 -999
2010-07-29 02:27:27 51°13.662 2°55.96 128.3 0.1 327 -999
2010-07-29 02:27:32 51°13.662 2°55.96 128.3 -999 332 -999
2010-07-29 02:27:37 51°13.662 2°55.96 128.3 -999 320 -999
2010-07-29 02:27:42 51°13.662 2°55.96 128.3 -999 185 -999
2010-07-29 02:27:47 51°13.662 2°55.96 128.3 -999 341 -999
2010-07-29 02:27:52 51°13.662 2°55.96 128.1 -999 201 -999
2010-07-29 02:27:57 51°13.662 2°55.96 128 -999 154 -999
2010-07-29 02:28:02 51°13.662 2°55.96 127.9 0.1 165 -999
2010-07-29 02:28:07 51°13.662 2°55.96 127.9 0.1 321 -999
2010-07-29 02:28:12 51°13.662 2°55.96 127.8 -999 348 -999
2010-07-29 02:28:17 51°13.662 2°55.96 127.8 0.1 163 -999
2010-07-29 02:28:22 51°13.662 2°55.96 127.8 -999 8 -999
2010-07-29 02:28:27 51°13.662 2°55.96 127.8 0.1 149 -999
2010-07-29 02:28:32 51°13.662 2°55.96 127.8 0.1 165 -999
2010-07-29 02:28:37 51°13.662 2°55.96 127.8 -999 338 -999
2010-07-29 02:28:42 51°13.662 2°55.96 127.8 -999 4 -999
2010-07-29 02:28:47 51°13.662 2°55.96 127.8 -999 324 -999
2010-07-29 02:28:52 51°13.662 2°55.96 127.9 -999 198 -999
2010-07-29 02:28:57 51°13.662 2°55.96 127.9 0.1 350 -999
2010-07-29 02:29:02 51°13.662 2°55.96 127.9 0.1 325 -999
2010-07-29 02:29:07 51°13.662 2°55.96 127.9 -999 264 -999
2010-07-29 02:29:12 51°13.662 2°55.96 127.8 0.1 346 -999
2010-07-29 02:29:17 51°13.662 2°55.96 127.7 -999 119 -999
2010-07-29 02:29:22 51°13.662 2°55.96 127.6 -999 52 -999
2010-07-29 02:29:27 51°13.662 2°55.96 127.5 -999 349 -999
2010-07-29 02:29:32 51°13.662 2°55.96 127.4 -999 320 -999
2010-07-29 02:29:37 51°13.662 2°55.96 127.4 -999 245 -999
2010-07-29 02:29:42 51°13.662 2°55.96 127.3 0.1 311 -999
2010-07-29 02:29:47 51°13.662 2°55.96 127.1 0.1 351 -999
2010-07-29 02:29:52 51°13.662 2°55.96 127.1 -999 25 -999
2010-07-29 02:29:57 51°13.662 2°55.96 127 -999 267 -999
2010-07-29 02:30:02 51°13.662 2°55.96 127 -999 19 -999
2010-07-29 02:30:07 51°13.662 2°55.96 127 -999 274 -999
2010-07-29 02:30:12 51°13.662 2°55.96 127.1 0.1 339 -999
2010-07-29 02:30:17 51°13.662 2°55.96 127.2 0.1 325 -999
2010-07-29 02:30:22 51°13.662 2°55.96 127.4 -999 143 -999
2010-07-29 02:30:27 51°13.662 2°55.96 127.6 0.1 162 -999
2010-07-29 02:30:32 51°13.662 2°55.96 127.8 0.1 315 -999
2010-07-29 02:30:37 51°13.662 2°55.96 128 -999 71 -999
2010-07-29 02:30:42 51°13.662 2°55.96 128.1 0.1 169 -999
2010-07-29 02:30:47 51°13.662 2°55.96 128.3 -999 177 -999
2010-07-29 02:30:52 51°13.662 2°55.96 128.3 0.1 160 -999
2010-07-29 02:30:57 51°13.662 2°55.96 128.3 -999 143 -999
2010-07-29 02:31:02 51°13.662 2°55.96 128.3 -999 339 -999
2010-07-29 02:31:07 51°13.662 2°55.96 128.4 -999 323 -999
2010-07-29 02:31:12 51°13.662 2°55.96 128.4 -999 221 -999
2010-07-29 02:31:17 51°13.662 2°55.96 128.3 -999 137 -999
2010-07-29 02:31:22 51°13.662 2°55.96 128.2 -999 155 -999
2010-07-29 02:31:27 51°13.662 2°55.96 128.1 -999 278 -999
2010-07-29 02:31:32 51°13.662 2°55.96 128.1 0.1 329 -999
2010-07-29 02:31:37 51°13.662 2°55.96 128.1 -999 187 -999
2010-07-29 02:31:42 51°13.662 2°55.96 128.1 -999 12 -999
2010-07-29 02:31:47 51°13.662 2°55.96 128.1 -999 207 -999
2010-07-29 02:31:52 51°13.662 2°55.96 128.1 -999 152 -999
2010-07-29 02:31:57 51°13.662 2°55.96 128.2 -999 133 -999
2010-07-29 02:32:02 51°13.662 2°55.96 128.3 0.1 164 -999
2010-07-29 02:32:07 51°13.662 2°55.96 128.3 -999 209 -999
2010-07-29 02:32:12 51°13.662 2°55.961 128.3 0.1 153 -999
2010-07-29 02:32:17 51°13.662 2°55.96 128.3 -999 274 -999
2010-07-29 02:32:22 51°13.662 2°55.96 128.3 0.1 350 -999
2010-07-29 02:32:27 51°13.661 2°55.96 128.3 -999 188 -999
2010-07-29 02:32:32 51°13.661 2°55.96 128.3 0.1 339 -999
2010-07-29 02:32:37 51°13.661 2°55.96 128.1 -999 353 -999
2010-07-29 02:32:42 51°13.661 2°55.961 128.1 0.1 160 -999
2010-07-29 02:32:47 51°13.661 2°55.961 128.1 -999 324 -999
2010-07-29 02:32:52 51°13.661 2°55.961 128.2 -999 263 -999
2010-07-29 02:32:57 51°13.661 2°55.961 128.3 -999 268 -999
2010-07-29 02:33:02 51°13.661 2°55.961 128.3 0.1 158 -999
2010-07-29 02:33:07 51°13.661 2°55.961 128.5 -999 333 -999
2010-07-29 02:33:12 51°13.661 2°55.961 128.5 -999 307 -999
2010-07-29 02:33:17 51°13.661 2°55.961 128.5 -999 211 -999
2010-07-29 02:33:22 51°13.661 2°55.961 128.4 -999 301 -999
2010-07-29 02:33:27 51°13.661 2°55.961 128.3 0.1 328 -999
2010-07-29 02:33:32 51°13.661 2°55.961 128.3 0.1 256 -999
2010-07-29 02:33:37 51°13.661 2°55.961 128.3 -999 235 -999
2010-07-29 02:33:42 51°13.662 2°55.961 128.3 -999 213 -999
2010-07-29 02:33:47 51°13.663 2°55.956 128.2 -999 338 -999
2010-07-29 02:33:52 51°13.664 2°55.955 128.2 -999 319 -999
2010-07-29 02:33:57 51°13.664 2°55.955 128.2 -999 307 -999
2010-07-29 02:34:02 51°13.664 2°55.956 128.2 -999 145 -999
2010-07-29 02:34:07 51°13.663 2°55.957 128.1 -999 273 -999
2010-07-29 02:34:12 51°13.663 2°55.959 128.1 -999 338 -999
2010-07-29 02:34:17 51°13.662 2°55.96 128 0.1 319 -999
2010-07-29 02:34:22 51°13.662 2°55.96 127.9 -999 328 -999
2010-07-29 02:34:27 51°13.662 2°55.96 127.8 -999 205 -999
2010-07-29 02:34:32 51°13.662 2°55.959 127.6 -999 337 -999
2010-07-29 02:34:37 51°13.662 2°55.959 127.5 -999 339 -999
2010-07-29 02:34:42 51°13.663 2°55.959 127.4 -999 191 -999
2010-07-29 02:34:47 51°13.663 2°55.959 127.3 0.1 162 -999
2010-07-29 02:34:52 51°13.663 2°55.958 127.2 0.1 162 -999
2010-07-29 02:34:57 51°13.662 2°55.959 127.2 0.1 164 -999
2010-07-29 02:35:02 51°13.662 2°55.959 127.2 -999 299 -999
2010-07-29 02:35:07 51°13.662 2°55.959 127.2 -999 328 -999
2010-07-29 02:35:12 51°13.662 2°55.959 127.3 -999 149 -999
2010-07-29 02:35:17 51°13.662 2°55.959 127.3 -999 169 -999
2010-07-29 02:35:22 51°13.662 2°55.958 127.4 -999 141 -999
2010-07-29 02:35:27 51°13.662 2°55.959 127.5 0.1 158 -999
2010-07-29 02:35:32 51°13.662 2°55.959 127.6 -999 158 -999
2010-07-29 02:35:37 51°13.662 2°55.959 127.6 0.1 155 -999
2010-07-29 02:35:42 51°13.662 2°55.959 127.6 -999 353 -999
2010-07-29 02:35:47 51°13.662 2°55.96 127.6 -999 284 -999
2010-07-29 02:35:52 51°13.662 2°55.96 127.7 -999 157 -999
2010-07-29 02:35:57 51°13.662 2°55.96 127.8 -999 178 -999
2010-07-29 02:36:02 51°13.662 2°55.96 127.8 -999 158 -999
2010-07-29 02:36:07 51°13.662 2°55.96 127.8 -999 172 -999
2010-07-29 02:36:12 51°13.662 2°55.96 127.8 0.1 344 -999
2010-07-29 02:36:17 51°13.662 2°55.96 127.8 -999 160 -999
2010-07-29 02:36:22 51°13.662 2°55.96 127.9 -999 313 -999
2010-07-29 02:36:27 51°13.662 2°55.961 127.9 -999 200 -999
2010-07-29 02:36:32 51°13.662 2°55.961 127.9 -999 10 -999
2010-07-29 02:36:37 51°13.662 2°55.961 127.9 -999 339 -999
2010-07-29 02:36:42 51°13.662 2°55.961 127.9 -999 2 -999
2010-07-29 02:36:47 51°13.662 2°55.961 127.9 -999 174 -999
2010-07-29 02:36:52 51°13.662 2°55.961 127.9 0.1 344 -999
2010-07-29 02:36:57 51°13.662 2°55.961 127.9 -999 339 -999
2010-07-29 02:37:02 51°13.662 2°55.961 128 -999 328 -999
2010-07-29 02:37:07 51°13.662 2°55.961 128 -999 252 -999
2010-07-29 02:37:12 51°13.662 2°55.961 128.1 -999 54 -999
2010-07-29 02:37:17 51°13.662 2°55.961 128.1 -999 329 -999
2010-07-29 02:37:22 51°13.662 2°55.961 128.2 -999 58 -999
2010-07-29 02:37:27 51°13.662 2°55.961 128.2 -999 299 -999
2010-07-29 02:37:32 51°13.662 2°55.961 128.3 -999 300 -999
2010-07-29 02:37:37 51°13.662 2°55.96 128.3 -999 290 -999
2010-07-29 02:37:42 51°13.662 2°55.96 128.3 -999 4 -999
2010-07-29 02:37:47 51°13.662 2°55.961 128.3 -999 135 -999
2010-07-29 02:37:52 51°13.662 2°55.961 128.3 -999 221 -999
2010-07-29 02:37:57 51°13.661 2°55.961 128.2 0.1 147 -999
2010-07-29 02:38:02 51°13.661 2°55.961 128.1 -999 187 -999
2010-07-29 02:38:07 51°13.661 2°55.961 127.9 0.1 357 -999
2010-07-29 02:38:12 51°13.661 2°55.961 127.9 -999 187 -999
2010-07-29 02:38:17 51°13.661 2°55.961 127.9 0.1 317 -999
2010-07-29 02:38:22 51°13.661 2°55.961 127.9 0.1 343 -999
2010-07-29 02:38:27 51°13.661 2°55.961 127.8 -999 184 -999
2010-07-29 02:38:32 51°13.661 2°55.961 127.9 -999 126 -999
2010-07-29 02:38:37 51°13.661 2°55.96 127.9 0.1 324 -999
2010-07-29 02:38:42 51°13.661 2°55.96 127.9 0.1 2 -999
2010-07-29 02:38:47 51°13.661 2°55.96 127.9 0.1 338 -999
2010-07-29 02:38:52 51°13.661 2°55.96 128 0.1 186 -999
2010-07-29 02:38:57 51°13.661 2°55.96 128.1 -999 338 -999
2010-07-29 02:39:02 51°13.661 2°55.96 128.1 -999 312 -999
2010-07-29 02:39:07 51°13.661 2°55.961 128.1 -999 354 -999
2010-07-29 02:39:12 51°13.661 2°55.961 128.1 -999 325 -999
2010-07-29 02:39:17 51°13.661 2°55.961 128.1 -999 321 -999
2010-07-29 02:39:22 51°13.66 2°55.961 128 -999 113 -999
2010-07-29 02:39:27 51°13.66 2°55.961 128 -999 175 -999
2010-07-29 02:39:32 51°13.66 2°55.961 128 0.1 162 -999
2010-07-29 02:39:37 51°13.66 2°55.961 128 -999 203 -999
2010-07-29 02:39:42 51°13.66 2°55.961 128.1 -999 152 -999
2010-07-29 02:39:47 51°13.66 2°55.961 128.1 0.1 170 -999
2010-07-29 02:39:52 51°13.66 2°55.961 128.1 -999 36 -999
2010-07-29 02:39:57 51°13.66 2°55.961 128.1 -999 333 -999
2010-07-29 02:40:02 51°13.66 2°55.961 128.1 -999 297 -999
2010-07-29 02:40:07 51°13.66 2°55.961 128.1 -999 331 -999
2010-07-29 02:40:12 51°13.66 2°55.961 128.2 -999 13 -999
2010-07-29 02:40:17 51°13.66 2°55.961 128.1 -999 164 -999
2010-07-29 02:40:22 51°13.66 2°55.961 128.1 -999 281 -999
2010-07-29 02:40:27 51°13.66 2°55.961 128 -999 150 -999
2010-07-29 02:40:32 51°13.66 2°55.961 128 -999 278 -999
2010-07-29 02:40:37 51°13.66 2°55.961 127.9 -999 337 -999
2010-07-29 02:40:42 51°13.66 2°55.961 127.8 0.1 323 -999
2010-07-29 02:40:47 51°13.66 2°55.961 127.8 -999 302 -999
2010-07-29 02:40:52 51°13.66 2°55.961 127.6 0.1 335 -999
2010-07-29 02:40:57 51°13.66 2°55.961 127.5 0.1 340 -999
2010-07-29 02:41:02 51°13.66 2°55.961 127.5 -999 160 -999
2010-07-29 02:41:07 51°13.66 2°55.961 127.5 -999 318 -999
2010-07-29 02:41:12 51°13.66 2°55.961 127.5 0.1 341 -999
2010-07-29 02:41:17 51°13.66 2°55.961 127.5 -999 148 -999
2010-07-29 02:41:22 51°13.66 2°55.961 127.5 0.1 144 -999
2010-07-29 02:41:27 51°13.66 2°55.961 127.5 -999 141 -999
2010-07-29 02:41:32 51°13.66 2°55.961 127.7 -999 147 -999
2010-07-29 02:41:37 51°13.66 2°55.961 127.8 0.1 224 -999
2010-07-29 02:41:42 51°13.66 2°55.961 127.8 -999 14 -999
2010-07-29 02:41:47 51°13.66 2°55.961 127.8 0.1 179 -999
2010-07-29 02:41:52 51°13.66 2°55.961 127.8 -999 37 -999
2010-07-29 02:41:57 51°13.66 2°55.961 127.8 0.1 202 -999
2010-07-29 02:42:02 51°13.66 2°55.961 127.7 -999 59 -999
2010-07-29 02:42:07 51°13.66 2°55.961 127.6 -999 300 -999
2010-07-29 02:42:12 51°13.66 2°55.961 127.4 0.1 349 -999
2010-07-29 02:42:17 51°13.66 2°55.961 127.4 -999 212 -999
2010-07-29 02:42:22 51°13.66 2°55.961 127.3 -999 265 -999
2010-07-29 02:42:27 51°13.66 2°55.961 127.2 -999 285 -999
2010-07-29 02:42:32 51°13.66 2°55.961 127.1 -999 304 -999
2010-07-29 02:42:37 51°13.66 2°55.961 127.1 -999 239 -999
2010-07-29 02:42:42 51°13.66 2°55.961 127.1 0.1 333 -999
2010-07-29 02:42:47 51°13.66 2°55.961 126.9 -999 195 -999
2010-07-29 02:42:52 51°13.66 2°55.961 126.8 -999 354 -999
2010-07-29 02:42:57 51°13.66 2°55.961 126.7 -999 350 -999
2010-07-29 02:43:02 51°13.66 2°55.961 126.7 -999 345 -999
2010-07-29 02:43:07 51°13.66 2°55.961 126.8 0.1 337 -999
2010-07-29 02:43:12 51°13.66 2°55.961 126.9 0.1 161 -999
2010-07-29 02:43:17 51°13.66 2°55.961 127 -999 141 -999
2010-07-29 02:43:22 51°13.66 2°55.961 127.2 0.1 169 -999
2010-07-29 02:43:27 51°13.66 2°55.961 127.3 -999 5 -999
2010-07-29 02:43:32 51°13.66 2°55.961 127.5 0.1 337 -999
2010-07-29 02:43:37 51°13.66 2°55.961 127.5 0.1 338 -999
2010-07-29 02:43:42 51°13.659 2°55.962 127.5 -999 145 -999
2010-07-29 02:43:47 51°13.659 2°55.962 127.5 -999 196 -999
2010-07-29 02:43:52 51°13.659 2°55.962 127.5 0.1 342 -999
2010-07-29 02:43:57 51°13.659 2°55.961 127.5 0.1 332 -999
2010-07-29 02:44:02 51°13.659 2°55.962 127.5 -999 130 -999
2010-07-29 02:44:07 51°13.659 2°55.962 127.5 -999 184 -999
2010-07-29 02:44:12 51°13.66 2°55.962 127.5 -999 168 -999
2010-07-29 02:44:17 51°13.66 2°55.962 127.5 -999 333 -999
2010-07-29 02:44:22 51°13.66 2°55.962 127.4 -999 337 -999
2010-07-29 02:44:27 51°13.66 2°55.962 127.3 0.1 158 -999
2010-07-29 02:44:32 51°13.66 2°55.962 127.2 -999 336 -999
2010-07-29 02:44:37 51°13.66 2°55.962 127.1 -999 157 -999
2010-07-29 02:44:42 51°13.66 2°55.962 127.1 -999 160 -999
2010-07-29 02:44:47 51°13.66 2°55.962 127.1 -999 311 -999
2010-07-29 02:44:52 51°13.66 2°55.962 127.1 -999 165 -999
2010-07-29 02:44:57 51°13.66 2°55.962 127.1 -999 325 -999
2010-07-29 02:45:02 51°13.66 2°55.962 127.1 0.2 159 -999
2010-07-29 02:45:07 51°13.66 2°55.961 127.1 -999 180 -999
2010-07-29 02:45:12 51°13.661 2°55.961 127.1 -999 155 -999
2010-07-29 02:45:17 51°13.661 2°55.961 127.1 -999 349 -999
2010-07-29 02:45:22 51°13.661 2°55.961 127.1 0.1 169 -999
2010-07-29 02:45:27 51°13.661 2°55.961 127.1 -999 349 -999
2010-07-29 02:45:32 51°13.661 2°55.961 127.1 0.1 340 -999
2010-07-29 02:45:37 51°13.661 2°55.961 127.1 -999 335 -999
2010-07-29 02:45:42 51°13.661 2°55.961 127.1 -999 167 -999
2010-07-29 02:45:47 51°13.661 2°55.961 127.1 0.1 337 -999
2010-07-29 02:45:52 51°13.661 2°55.961 127.1 -999 316 -999
2010-07-29 02:45:57 51°13.661 2°55.961 127.1 -999 204 -999
2010-07-29 02:46:02 51°13.661 2°55.961 127.1 -999 148 -999
2010-07-29 02:46:07 51°13.661 2°55.961 127.1 -999 161 -999
2010-07-29 02:46:12 51°13.661 2°55.96 127.1 -999 302 -999
2010-07-29 02:46:17 51°13.661 2°55.961 127.1 -999 347 -999
2010-07-29 02:46:22 51°13.661 2°55.961 127.1 0.1 334 -999
2010-07-29 02:46:27 51°13.66 2°55.961 127.1 -999 354 -999
2010-07-29 02:46:32 51°13.66 2°55.961 127.1 -999 330 -999
2010-07-29 02:46:37 51°13.66 2°55.961 127.1 -999 267 -999
2010-07-29 02:46:42 51°13.661 2°55.961 127.2 -999 120 -999
2010-07-29 02:46:47 51°13.66 2°55.961 127.2 -999 189 -999
2010-07-29 02:46:52 51°13.66 2°55.961 127.2 -999 337 -999
2010-07-29 02:46:57 51°13.66 2°55.961 127.3 -999 161 -999
2010-07-29 02:47:02 51°13.66 2°55.961 127.4 0.1 158 -999
2010-07-29 02:47:07 51°13.661 2°55.96 127.4 -999 162 -999
2010-07-29 02:47:12 51°13.661 2°55.96 127.4 -999 341 -999
2010-07-29 02:47:17 51°13.661 2°55.96 127.4 0.1 345 -999
2010-07-29 02:47:22 51°13.661 2°55.96 127.4 0.1 345 -999
2010-07-29 02:47:27 51°13.661 2°55.96 127.5 0.1 318 -999
2010-07-29 02:47:32 51°13.661 2°55.96 127.5 -999 154 -999
2010-07-29 02:47:37 51°13.66 2°55.96 127.5 0.1 161 -999
2010-07-29 02:47:42 51°13.66 2°55.96 127.5 -999 185 -999
2010-07-29 02:47:47 51°13.66 2°55.959 127.4 -999 254 -999
2010-07-29 02:47:52 51°13.66 2°55.959 127.3 -999 161 -999
2010-07-29 02:47:57 51°13.66 2°55.959 127.2 -999 255 -999
2010-07-29 02:48:02 51°13.66 2°55.959 127.1 -999 299 -999
2010-07-29 02:48:07 51°13.66 2°55.959 127 -999 333 -999
2010-07-29 02:48:12 51°13.66 2°55.959 126.9 -999 310 -999
2010-07-29 02:48:17 51°13.66 2°55.959 126.8 -999 326 -999
2010-07-29 02:48:22 51°13.66 2°55.959 126.7 -999 351 -999
2010-07-29 02:48:27 51°13.661 2°55.959 126.7 0.1 340 -999
2010-07-29 02:48:32 51°13.66 2°55.959 126.7 -999 -999 -999
2010-07-29 02:48:37 51°13.66 2°55.959 126.8 -999 354 -999
2010-07-29 02:48:42 51°13.66 2°55.959 126.9 -999 172 -999
2010-07-29 02:48:47 51°13.66 2°55.959 127.1 -999 126 -999
2010-07-29 02:48:52 51°13.66 2°55.959 127.2 0.1 164 -999
2010-07-29 02:48:57 51°13.66 2°55.959 127.3 -999 211 -999
2010-07-29 02:49:02 51°13.66 2°55.959 127.4 0.1 161 -999
2010-07-29 02:49:07 51°13.66 2°55.959 127.5 -999 143 -999
2010-07-29 02:49:12 51°13.66 2°55.959 127.5 -999 307 -999
2010-07-29 02:49:17 51°13.66 2°55.959 127.5 -999 342 -999
2010-07-29 02:49:22 51°13.66 2°55.959 127.5 -999 310 -999
2010-07-29 02:49:27 51°13.66 2°55.959 127.5 -999 187 -999
2010-07-29 02:49:32 51°13.66 2°55.958 127.5 -999 324 -999
2010-07-29 02:49:37 51°13.66 2°55.958 127.5 -999 195 -999
2010-07-29 02:49:42 51°13.66 2°55.959 127.4 -999 211 -999
2010-07-29 02:49:47 51°13.66 2°55.959 127.4 -999 325 -999
2010-07-29 02:49:52 51°13.66 2°55.959 127.3 -999 323 -999
2010-07-29 02:49:57 51°13.661 2°55.959 127.2 -999 165 -999
2010-07-29 02:50:02 51°13.661 2°55.959 127.1 -999 330 -999
2010-07-29 02:50:07 51°13.661 2°55.958 127.1 -999 164 -999
2010-07-29 02:50:12 51°13.661 2°55.958 127.1 -999 214 -999
2010-07-29 02:50:17 51°13.661 2°55.958 126.9 -999 166 -999
2010-07-29 02:50:22 51°13.661 2°55.958 126.9 0.1 165 -999
2010-07-29 02:50:27 51°13.661 2°55.958 126.7 0.1 161 -999
2010-07-29 02:50:32 51°13.662 2°55.958 126.7 -999 115 -999
2010-07-29 02:50:37 51°13.662 2°55.958 126.7 -999 317 -999
2010-07-29 02:50:42 51°13.662 2°55.958 126.7 -999 337 -999
2010-07-29 02:50:47 51°13.662 2°55.958 126.7 -999 156 -999
2010-07-29 02:50:52 51°13.662 2°55.958 126.9 -999 159 -999
2010-07-29 02:50:57 51°13.662 2°55.958 126.9 -999 168 -999
2010-07-29 02:51:02 51°13.662 2°55.958 127 0.1 163 -999
2010-07-29 02:51:07 51°13.662 2°55.958 127.1 -999 345 -999
2010-07-29 02:51:12 51°13.662 2°55.959 127.1 -999 167 -999
2010-07-29 02:51:17 51°13.662 2°55.959 127.1 -999 347 -999
2010-07-29 02:51:22 51°13.662 2°55.959 127.1 -999 334 -999
2010-07-29 02:51:27 51°13.663 2°55.959 127.1 -999 177 -999
2010-07-29 02:51:32 51°13.663 2°55.959 127.1 0.1 336 -999
2010-07-29 02:51:37 51°13.663 2°55.959 127.1 -999 343 -999
2010-07-29 02:51:42 51°13.663 2°55.959 127.2 0.1 166 -999
2010-07-29 02:51:47 51°13.663 2°55.959 127.1 0.1 154 -999
2010-07-29 02:51:52 51°13.664 2°55.959 127.1 -999 159 -999
2010-07-29 02:51:57 51°13.664 2°55.959 127.1 -999 324 -999
2010-07-29 02:52:02 51°13.664 2°55.959 127.1 -999 104 -999
2010-07-29 02:52:07 51°13.664 2°55.959 127.1 -999 258 -999
2010-07-29 02:52:12 51°13.664 2°55.959 127.1 -999 162 -999
2010-07-29 02:52:17 51°13.664 2°55.959 127.2 0.1 339 -999
2010-07-29 02:52:22 51°13.664 2°55.96 127.2 0.1 337 -999
2010-07-29 02:52:27 51°13.664 2°55.96 127.4 -999 202 -999
2010-07-29 02:52:32 51°13.664 2°55.96 127.4 -999 274 -999
2010-07-29 02:52:37 51°13.664 2°55.96 127.4 0.1 209 -999
2010-07-29 02:52:42 51°13.664 2°55.96 127.5 -999 214 -999
2010-07-29 02:52:47 51°13.664 2°55.96 127.5 -999 315 -999
2010-07-29 02:52:52 51°13.664 2°55.96 127.5 -999 213 -999
2010-07-29 02:52:57 51°13.664 2°55.959 127.4 -999 322 -999
2010-07-29 02:53:02 51°13.665 2°55.959 127.4 -999 273 -999
2010-07-29 02:53:07 51°13.665 2°55.959 127.4 -999 261 -999
2010-07-29 02:53:12 51°13.665 2°55.959 127.2 -999 355 -999
2010-07-29 02:53:17 51°13.665 2°55.959 127.1 0.1 39 -999
2010-07-29 02:53:22 51°13.664 2°55.959 127.1 -999 335 -999
2010-07-29 02:53:27 51°13.664 2°55.958 127 -999 228 -999
2010-07-29 02:53:32 51°13.665 2°55.958 126.9 -999 41 -999
2010-07-29 02:53:37 51°13.665 2°55.958 126.8 -999 39 -999
2010-07-29 02:53:42 51°13.665 2°55.958 126.8 0.1 4 -999
2010-07-29 02:53:47 51°13.665 2°55.958 126.7 -999 14 -999
2010-07-29 02:53:52 51°13.665 2°55.958 126.6 -999 291 -999
2010-07-29 02:53:57 51°13.665 2°55.958 126.6 -999 235 -999
2010-07-29 02:54:02 51°13.665 2°55.958 126.6 -999 352 -999
2010-07-29 02:54:07 51°13.665 2°55.957 126.6 -999 6 -999
2010-07-29 02:54:12 51°13.665 2°55.957 126.6 -999 169 -999
2010-07-29 02:54:17 51°13.665 2°55.957 126.7 -999 359 -999
2010-07-29 02:54:22 51°13.665 2°55.959 126.8 -999 170 -999
2010-07-29 02:54:27 51°13.664 2°55.963 126.9 0.1 27 -999
2010-07-29 02:54:32 51°13.664 2°55.962 127 -999 171 -999
2010-07-29 02:54:37 51°13.662 2°55.965 127.1 -999 63 -999
2010-07-29 02:54:42 51°13.662 2°55.965 127.1 0.1 209 -999
2010-07-29 02:54:47 51°13.663 2°55.964 127.1 0.1 11 -999
2010-07-29 02:54:52 51°13.663 2°55.963 127.1 -999 13 -999
2010-07-29 02:54:57 51°13.664 2°55.962 127.1 -999 354 -999
2010-07-29 02:55:02 51°13.664 2°55.961 127 -999 287 -999
2010-07-29 02:55:07 51°13.665 2°55.96 126.9 -999 3 -999
2010-07-29 02:55:12 51°13.665 2°55.959 126.8 0.1 10 -999
2010-07-29 02:55:17 51°13.665 2°55.959 126.7 -999 356 -999
2010-07-29 02:55:22 51°13.666 2°55.958 126.6 -999 330 -999
2010-07-29 02:55:27 51°13.666 2°55.958 126.5 -999 356 -999
2010-07-29 02:55:32 51°13.665 2°55.957 126.4 -999 213 -999
2010-07-29 02:55:37 51°13.665 2°55.957 126.4 -999 201 -999
2010-07-29 02:55:42 51°13.665 2°55.958 126.4 -999 359 -999
2010-07-29 02:55:47 51°13.665 2°55.958 126.5 -999 211 -999
2010-07-29 02:55:52 51°13.665 2°55.959 126.6 -999 160 -999
2010-07-29 02:55:57 51°13.665 2°55.959 126.6 -999 61 -999
2010-07-29 02:56:02 51°13.665 2°55.959 126.7 -999 290 -999
2010-07-29 02:56:07 51°13.664 2°55.96 126.7 -999 170 -999
2010-07-29 02:56:12 51°13.665 2°55.959 126.7 -999 353 -999
2010-07-29 02:56:17 51°13.665 2°55.959 126.7 -999 9 -999
2010-07-29 02:56:22 51°13.665 2°55.959 126.6 0.1 13 -999
2010-07-29 02:56:27 51°13.665 2°55.958 126.5 -999 248 -999
2010-07-29 02:56:32 51°13.665 2°55.958 126.5 -999 209 -999
2010-07-29 02:56:37 51°13.665 2°55.958 126.4 -999 268 -999
2010-07-29 02:56:42 51°13.665 2°55.958 126.4 -999 4 -999
2010-07-29 02:56:47 51°13.665 2°55.958 126.4 -999 182 -999
2010-07-29 02:56:52 51°13.665 2°55.958 126.4 -999 211 -999
2010-07-29 02:56:57 51°13.665 2°55.958 126.3 -999 214 -999
2010-07-29 02:57:02 51°13.665 2°55.958 126.3 -999 271 -999
2010-07-29 02:57:07 51°13.665 2°55.958 126.3 -999 217 -999
2010-07-29 02:57:12 51°13.665 2°55.959 126.3 -999 239 -999
2010-07-29 02:57:17 51°13.665 2°55.959 126.3 -999 213 -999
2010-07-29 02:57:22 51°13.665 2°55.96 126.3 0.1 30 -999
2010-07-29 02:57:27 51°13.665 2°55.96 126.3 -999 320 -999
2010-07-29 02:57:32 51°13.665 2°55.96 126.3 -999 308 -999
2010-07-29 02:57:37 51°13.665 2°55.961 126.3 -999 219 -999
2010-07-29 02:57:42 51°13.665 2°55.961 126.3 -999 346 -999
2010-07-29 02:57:47 51°13.664 2°55.961 126.3 -999 258 -999
2010-07-29 02:57:52 51°13.665 2°55.961 126.3 -999 184 -999
2010-07-29 02:57:57 51°13.665 2°55.961 126.3 -999 355 -999
2010-07-29 02:58:02 51°13.665 2°55.961 126.4 -999 65 -999
2010-07-29 02:58:07 51°13.665 2°55.961 126.6 -999 186 -999
2010-07-29 02:58:12 51°13.665 2°55.961 126.7 -999 135 -999
2010-07-29 02:58:17 51°13.665 2°55.961 126.8 -999 80 -999
2010-07-29 02:58:22 51°13.665 2°55.961 127.1 -999 234 -999
2010-07-29 02:58:27 51°13.665 2°55.961 127.1 -999 191 -999
2010-07-29 02:58:32 51°13.665 2°55.961 127.1 -999 146 -999
2010-07-29 02:58:37 51°13.665 2°55.961 127.2 -999 359 -999
2010-07-29 02:58:42 51°13.664 2°55.961 127.2 -999 332 -999
2010-07-29 02:58:47 51°13.664 2°55.961 127.2 -999 232 -999
2010-07-29 02:58:52 51°13.665 2°55.959 127.2 -999 331 -999
2010-07-29 02:58:57 51°13.665 2°55.956 127.2 -999 19 -999
2010-07-29 02:59:02 51°13.665 2°55.956 127.1 -999 180 -999
2010-07-29 02:59:07 51°13.665 2°55.956 127.1 0.1 219 -999
2010-07-29 02:59:12 51°13.665 2°55.959 127 -999 318 -999
2010-07-29 02:59:17 51°13.662 2°55.965 126.8 -999 335 -999
2010-07-29 02:59:22 51°13.661 2°55.969 126.7 -999 338 -999
2010-07-29 02:59:27 51°13.66 2°55.971 126.6 -999 241 -999
2010-07-29 02:59:32 51°13.66 2°55.972 126.4 -999 249 -999
2010-07-29 02:59:37 51°13.659 2°55.972 126.4 -999 250 -999
2010-07-29 02:59:42 51°13.66 2°55.972 126.4 -999 -999 -999
2010-07-29 02:59:47 51°13.66 2°55.972 126.3 -999 184 -999
2010-07-29 02:59:52 51°13.66 2°55.971 126.3 -999 320 -999
2010-07-29 02:59:57 51°13.661 2°55.97 126.3 -999 200 -999
2010-07-29 03:00:02 51°13.662 2°55.97 126.3 -999 234 -999
2010-07-29 03:00:07 51°13.663 2°55.97 126.3 -999 23 -999
2010-07-29 03:00:12 51°13.663 2°55.969 126.3 -999 215 -999
2010-07-29 03:00:17 51°13.664 2°55.969 126.3 -999 231 -999
2010-07-29 03:00:22 51°13.664 2°55.968 126.3 -999 328 -999
2010-07-29 03:00:27 51°13.665 2°55.968 126.4 -999 218 -999
2010-07-29 03:00:32 51°13.665 2°55.968 126.4 -999 158 -999
2010-07-29 03:00:37 51°13.665 2°55.968 126.4 -999 12 -999
2010-07-29 03:00:42 51°13.665 2°55.968 126.4 -999 12 -999
2010-07-29 03:00:47 51°13.665 2°55.968 126.4 -999 36 -999
2010-07-29 03:00:52 51°13.665 2°55.968 126.4 -999 335 -999
2010-07-29 03:00:57 51°13.665 2°55.968 126.5 -999 20 -999
2010-07-29 03:01:02 51°13.665 2°55.968 126.5 -999 235 -999
2010-07-29 03:01:07 51°13.665 2°55.968 126.5 -999 190 -999
2010-07-29 03:01:12 51°13.665 2°55.967 126.5 -999 206 -999
2010-07-29 03:01:17 51°13.665 2°55.967 126.5 -999 236 -999
2010-07-29 03:01:22 51°13.665 2°55.967 126.4 -999 307 -999
2010-07-29 03:01:27 51°13.665 2°55.967 126.4 -999 346 -999
2010-07-29 03:01:32 51°13.665 2°55.966 126.4 -999 314 -999
2010-07-29 03:01:37 51°13.665 2°55.966 126.3 -999 173 -999
2010-07-29 03:01:42 51°13.666 2°55.966 126.2 -999 24 -999
2010-07-29 03:01:47 51°13.666 2°55.965 126.2 -999 21 -999
2010-07-29 03:01:52 51°13.666 2°55.965 126.2 -999 212 -999
2010-07-29 03:01:57 51°13.666 2°55.964 126.2 -999 230 -999
2010-07-29 03:02:02 51°13.666 2°55.964 126.2 -999 170 -999
2010-07-29 03:02:07 51°13.666 2°55.963 126.3 -999 220 -999
2010-07-29 03:02:12 51°13.666 2°55.963 126.3 -999 267 -999
2010-07-29 03:02:17 51°13.666 2°55.963 126.3 0.1 4 -999
2010-07-29 03:02:22 51°13.666 2°55.963 126.3 -999 3 -999
2010-07-29 03:02:27 51°13.666 2°55.963 126.4 -999 285 -999
2010-07-29 03:02:32 51°13.666 2°55.963 126.4 -999 320 -999
2010-07-29 03:02:37 51°13.666 2°55.963 126.4 -999 340 -999
2010-07-29 03:02:42 51°13.666 2°55.963 126.4 -999 265 -999
2010-07-29 03:02:47 51°13.666 2°55.963 126.4 -999 166 -999
2010-07-29 03:02:52 51°13.666 2°55.963 126.4 0.1 16 -999
2010-07-29 03:02:57 51°13.665 2°55.963 126.4 -999 222 -999
2010-07-29 03:03:02 51°13.665 2°55.962 126.4 -999 238 -999
2010-07-29 03:03:07 51°13.665 2°55.962 126.4 0.1 215 -999
2010-07-29 03:03:12 51°13.665 2°55.962 126.4 -999 15 -999
2010-07-29 03:03:17 51°13.665 2°55.962 126.5 -999 351 -999
2010-07-29 03:03:22 51°13.665 2°55.962 126.5 0.1 322 -999
2010-07-29 03:03:27 51°13.665 2°55.963 126.5 -999 222 -999
2010-07-29 03:03:32 51°13.665 2°55.963 126.5 -999 21 -999
2010-07-29 03:03:37 51°13.665 2°55.962 126.5 -999 270 -999
2010-07-29 03:03:42 51°13.665 2°55.962 126.5 -999 207 -999
2010-07-29 03:03:47 51°13.665 2°55.962 126.5 -999 153 -999
2010-07-29 03:03:52 51°13.665 2°55.962 126.6 -999 189 -999
2010-07-29 03:03:57 51°13.665 2°55.962 126.7 0.1 16 -999
2010-07-29 03:04:02 51°13.665 2°55.962 126.8 -999 359 -999
2010-07-29 03:04:07 51°13.665 2°55.961 126.9 -999 203 -999
2010-07-29 03:04:12 51°13.665 2°55.961 127 -999 235 -999
2010-07-29 03:04:17 51°13.665 2°55.961 127.1 -999 218 -999
2010-07-29 03:04:22 51°13.665 2°55.961 127.1 -999 168 -999
2010-07-29 03:04:27 51°13.665 2°55.961 127.1 -999 145 -999
2010-07-29 03:04:32 51°13.665 2°55.961 127.2 -999 5 -999
2010-07-29 03:04:37 51°13.665 2°55.961 127.3 0.1 6 -999
2010-07-29 03:04:42 51°13.665 2°55.961 127.3 -999 244 -999
2010-07-29 03:04:47 51°13.665 2°55.961 127.3 0.1 198 -999
2010-07-29 03:04:52 51°13.665 2°55.961 127.3 -999 338 -999
2010-07-29 03:04:57 51°13.665 2°55.961 127.3 0.1 210 -999
2010-07-29 03:05:02 51°13.666 2°55.961 127.3 0.1 10 -999
2010-07-29 03:05:07 51°13.666 2°55.961 127.3 0.1 10 -999
2010-07-29 03:05:12 51°13.666 2°55.96 127.3 -999 311 -999
2010-07-29 03:05:17 51°13.666 2°55.96 127.2 -999 328 -999
2010-07-29 03:05:22 51°13.665 2°55.96 127.1 -999 220 -999
2010-07-29 03:05:27 51°13.665 2°55.961 127.1 -999 218 -999
2010-07-29 03:05:32 51°13.665 2°55.961 127 -999 255 -999
2010-07-29 03:05:37 51°13.665 2°55.961 127 -999 296 -999
2010-07-29 03:05:42 51°13.666 2°55.961 126.9 -999 20 -999
2010-07-29 03:05:47 51°13.666 2°55.96 126.8 0.1 7 -999
2010-07-29 03:05:52 51°13.666 2°55.96 126.8 0.1 34 -999
2010-07-29 03:05:57 51°13.666 2°55.96 126.8 -999 32 -999
2010-07-29 03:06:02 51°13.666 2°55.96 126.8 -999 177 -999
2010-07-29 03:06:07 51°13.666 2°55.96 127 -999 217 -999
2010-07-29 03:06:12 51°13.666 2°55.96 127.1 -999 41 -999
2010-07-29 03:06:17 51°13.666 2°55.961 127.2 0.1 24 -999
2010-07-29 03:06:22 51°13.666 2°55.961 127.4 -999 28 -999
2010-07-29 03:06:27 51°13.665 2°55.961 127.5 -999 144 -999
2010-07-29 03:06:32 51°13.665 2°55.961 127.7 -999 24 -999
2010-07-29 03:06:37 51°13.665 2°55.961 127.8 -999 231 -999
2010-07-29 03:06:42 51°13.665 2°55.961 127.8 -999 227 -999
2010-07-29 03:06:47 51°13.665 2°55.961 127.8 -999 24 -999
2010-07-29 03:06:52 51°13.665 2°55.961 127.8 -999 4 -999
2010-07-29 03:06:57 51°13.665 2°55.961 127.7 -999 8 -999
2010-07-29 03:07:02 51°13.665 2°55.961 127.7 -999 351 -999
2010-07-29 03:07:07 51°13.665 2°55.961 127.6 0.1 -999 -999
2010-07-29 03:07:12 51°13.664 2°55.961 127.5 0.1 323 -999
2010-07-29 03:07:17 51°13.664 2°55.961 127.4 -999 234 -999
2010-07-29 03:07:22 51°13.664 2°55.961 127.3 -999 280 -999
2010-07-29 03:07:27 51°13.664 2°55.961 127.1 0.1 47 -999
2010-07-29 03:07:32 51°13.664 2°55.96 127.1 0.1 345 -999
2010-07-29 03:07:37 51°13.664 2°55.96 127.1 0.1 314 -999
2010-07-29 03:07:42 51°13.664 2°55.96 127.1 0.1 348 -999
2010-07-29 03:07:47 51°13.664 2°55.96 127.1 0.1 323 -999
2010-07-29 03:07:52 51°13.664 2°55.96 127.1 -999 232 -999
2010-07-29 03:07:57 51°13.664 2°55.96 127.1 0.1 155 -999
2010-07-29 03:08:02 51°13.664 2°55.96 127 0.1 126 -999
2010-07-29 03:08:07 51°13.664 2°55.96 126.9 0.1 146 -999
2010-07-29 03:08:12 51°13.664 2°55.96 126.9 -999 353 -999
2010-07-29 03:08:17 51°13.663 2°55.961 127.1 0.1 307 -999
2010-07-29 03:08:22 51°13.663 2°55.961 127.1 -999 319 -999
2010-07-29 03:08:27 51°13.663 2°55.961 127.2 0.1 184 -999
2010-07-29 03:08:32 51°13.663 2°55.96 127.3 -999 228 -999
2010-07-29 03:08:37 51°13.664 2°55.96 127.4 -999 309 -999
2010-07-29 03:08:42 51°13.663 2°55.96 127.4 -999 238 -999
2010-07-29 03:08:47 51°13.664 2°55.96 127.5 -999 212 -999
2010-07-29 03:08:52 51°13.664 2°55.96 127.6 0.1 333 -999
2010-07-29 03:08:57 51°13.664 2°55.96 127.7 -999 257 -999
2010-07-29 03:09:02 51°13.664 2°55.96 127.8 -999 223 -999
2010-07-29 03:09:07 51°13.664 2°55.96 127.8 -999 318 -999
2010-07-29 03:09:12 51°13.664 2°55.96 127.8 0.1 203 -999
2010-07-29 03:09:17 51°13.664 2°55.961 127.8 0.1 31 -999
2010-07-29 03:09:22 51°13.663 2°55.96 127.9 0.1 313 -999
2010-07-29 03:09:27 51°13.663 2°55.961 127.9 -999 355 -999
2010-07-29 03:09:32 51°13.663 2°55.961 127.9 0.1 148 -999
2010-07-29 03:09:37 51°13.663 2°55.961 127.9 -999 5 -999
2010-07-29 03:09:42 51°13.663 2°55.96 127.9 0.1 300 -999
2010-07-29 03:09:47 51°13.663 2°55.96 127.9 -999 63 -999
2010-07-29 03:09:52 51°13.663 2°55.96 127.9 -999 171 -999
2010-07-29 03:09:57 51°13.663 2°55.96 127.9 -999 184 -999
2010-07-29 03:10:02 51°13.663 2°55.96 127.9 -999 281 -999
2010-07-29 03:10:07 51°13.663 2°55.96 127.9 0.1 332 -999
2010-07-29 03:10:12 51°13.663 2°55.96 127.9 0.1 233 -999
2010-07-29 03:10:17 51°13.663 2°55.96 127.9 -999 187 -999
2010-07-29 03:10:22 51°13.663 2°55.96 127.9 -999 303 -999
2010-07-29 03:10:27 51°13.663 2°55.96 127.9 0.1 340 -999
2010-07-29 03:10:32 51°13.663 2°55.96 127.9 0.1 319 -999
2010-07-29 03:10:37 51°13.662 2°55.961 127.9 -999 142 -999
2010-07-29 03:10:42 51°13.662 2°55.961 127.9 -999 175 -999
2010-07-29 03:10:47 51°13.662 2°55.961 127.8 -999 218 -999
2010-07-29 03:10:52 51°13.662 2°55.961 127.8 -999 260 -999
2010-07-29 03:10:57 51°13.662 2°55.961 127.8 -999 244 -999
2010-07-29 03:11:02 51°13.662 2°55.961 127.8 -999 113 -999
2010-07-29 03:11:07 51°13.661 2°55.961 127.8 -999 239 -999
2010-07-29 03:11:12 51°13.661 2°55.961 127.9 -999 319 -999
2010-07-29 03:11:17 51°13.661 2°55.961 128 -999 211 -999
2010-07-29 03:11:22 51°13.661 2°55.961 128 -999 189 -999
2010-07-29 03:11:27 51°13.662 2°55.961 128 -999 192 -999
2010-07-29 03:11:32 51°13.662 2°55.961 128 -999 207 -999
2010-07-29 03:11:37 51°13.662 2°55.961 127.9 -999 250 -999
2010-07-29 03:11:42 51°13.662 2°55.961 127.9 -999 110 -999
2010-07-29 03:11:47 51°13.662 2°55.961 127.9 -999 211 -999
2010-07-29 03:11:52 51°13.662 2°55.961 127.9 -999 254 -999
2010-07-29 03:11:57 51°13.662 2°55.961 127.9 0.1 6 -999
2010-07-29 03:12:02 51°13.662 2°55.961 127.9 -999 358 -999
2010-07-29 03:12:07 51°13.661 2°55.961 127.9 -999 165 -999
2010-07-29 03:12:12 51°13.661 2°55.961 127.9 -999 340 -999
2010-07-29 03:12:17 51°13.661 2°55.961 127.9 -999 187 -999
2010-07-29 03:12:22 51°13.66 2°55.961 127.9 0.1 178 -999
2010-07-29 03:12:27 51°13.66 2°55.961 128 -999 263 -999
2010-07-29 03:12:32 51°13.66 2°55.961 128 -999 7 -999
2010-07-29 03:12:37 51°13.66 2°55.962 128 -999 123 -999
2010-07-29 03:12:42 51°13.66 2°55.962 128 -999 216 -999
2010-07-29 03:12:47 51°13.66 2°55.962 128 -999 295 -999
2010-07-29 03:12:52 51°13.66 2°55.961 128 0.1 319 -999
2010-07-29 03:12:57 51°13.66 2°55.961 128 0.1 297 -999
2010-07-29 03:13:02 51°13.66 2°55.961 127.9 -999 220 -999
2010-07-29 03:13:07 51°13.661 2°55.961 127.8 -999 255 -999
2010-07-29 03:13:12 51°13.661 2°55.961 127.8 -999 149 -999
2010-07-29 03:13:17 51°13.661 2°55.961 127.8 -999 308 -999
2010-07-29 03:13:22 51°13.66 2°55.961 127.8 -999 106 -999
2010-07-29 03:13:27 51°13.66 2°55.961 127.8 -999 129 -999
2010-07-29 03:13:32 51°13.66 2°55.961 127.7 -999 209 -999
2010-07-29 03:13:37 51°13.66 2°55.961 127.7 0.1 207 -999
2010-07-29 03:13:42 51°13.66 2°55.961 127.6 -999 146 -999
2010-07-29 03:13:47 51°13.66 2°55.961 127.6 -999 128 -999
2010-07-29 03:13:52 51°13.661 2°55.961 127.6 -999 334 -999
2010-07-29 03:13:57 51°13.661 2°55.961 127.6 0.1 335 -999
2010-07-29 03:14:02 51°13.661 2°55.961 127.6 0.1 325 -999
2010-07-29 03:14:07 51°13.661 2°55.961 127.6 0.1 319 -999
2010-07-29 03:14:12 51°13.661 2°55.961 127.6 -999 270 -999
2010-07-29 03:14:17 51°13.661 2°55.961 127.6 -999 215 -999
2010-07-29 03:14:22 51°13.661 2°55.961 127.6 -999 67 -999
2010-07-29 03:14:27 51°13.661 2°55.961 127.6 0.1 159 -999
2010-07-29 03:14:32 51°13.661 2°55.961 127.6 -999 247 -999
2010-07-29 03:14:37 51°13.661 2°55.961 127.7 -999 5 -999
2010-07-29 03:14:42 51°13.661 2°55.961 127.7 -999 306 -999
2010-07-29 03:14:47 51°13.661 2°55.961 127.8 0.1 327 -999
2010-07-29 03:14:52 51°13.661 2°55.961 127.8 0.1 328 -999
2010-07-29 03:14:57 51°13.661 2°55.961 127.8 -999 323 -999
2010-07-29 03:15:02 51°13.661 2°55.961 127.8 0.1 316 -999
2010-07-29 03:15:07 51°13.661 2°55.961 127.8 -999 53 -999
2010-07-29 03:15:12 51°13.661 2°55.961 127.8 -999 349 -999
2010-07-29 03:15:17 51°13.661 2°55.961 127.8 -999 86 -999
2010-07-29 03:15:22 51°13.661 2°55.961 127.8 -999 142 -999
2010-07-29 03:15:27 51°13.661 2°55.961 127.8 -999 198 -999
2010-07-29 03:15:32 51°13.661 2°55.961 127.8 0.1 332 -999
2010-07-29 03:15:37 51°13.661 2°55.961 127.8 -999 303 -999
2010-07-29 03:15:42 51°13.661 2°55.961 127.8 -999 129 -999
2010-07-29 03:15:47 51°13.661 2°55.961 127.8 -999 185 -999
2010-07-29 03:15:52 51°13.662 2°55.96 127.8 0.1 316 -999
2010-07-29 03:15:57 51°13.662 2°55.961 127.8 0.1 11 -999
2010-07-29 03:16:02 51°13.662 2°55.96 127.9 -999 280 -999
2010-07-29 03:16:07 51°13.662 2°55.96 127.9 0.1 352 -999
2010-07-29 03:16:12 51°13.661 2°55.96 127.9 0.1 293 -999
2010-07-29 03:16:17 51°13.661 2°55.96 127.9 -999 291 -999
2010-07-29 03:16:22 51°13.661 2°55.96 127.9 -999 187 -999
2010-07-29 03:16:27 51°13.661 2°55.96 127.9 0.1 350 -999
2010-07-29 03:16:32 51°13.661 2°55.96 128 0.1 5 -999
2010-07-29 03:16:37 51°13.661 2°55.96 128 0.1 226 -999
2010-07-29 03:16:42 51°13.661 2°55.96 128 0.1 325 -999
2010-07-29 03:16:47 51°13.661 2°55.96 128 0.1 297 -999
2010-07-29 03:16:52 51°13.661 2°55.961 128 0.1 40 -999
2010-07-29 03:16:57 51°13.661 2°55.961 128 -999 117 -999
2010-07-29 03:17:02 51°13.66 2°55.961 127.9 -999 106 -999
2010-07-29 03:17:07 51°13.661 2°55.961 127.9 0.1 350 -999
2010-07-29 03:17:12 51°13.661 2°55.961 127.9 0.1 349 -999
2010-07-29 03:17:17 51°13.661 2°55.961 127.9 -999 217 -999
2010-07-29 03:17:22 51°13.661 2°55.961 127.9 -999 302 -999
2010-07-29 03:17:27 51°13.661 2°55.961 127.9 -999 275 -999
2010-07-29 03:17:32 51°13.66 2°55.961 127.9 -999 53 -999
2010-07-29 03:17:37 51°13.66 2°55.961 127.9 -999 228 -999
2010-07-29 03:17:42 51°13.66 2°55.961 127.9 -999 341 -999
2010-07-29 03:17:47 51°13.66 2°55.961 127.9 -999 187 -999
2010-07-29 03:17:52 51°13.66 2°55.961 127.9 -999 13 -999
2010-07-29 03:17:57 51°13.66 2°55.961 127.8 0.1 167 -999
2010-07-29 03:18:02 51°13.66 2°55.961 127.7 -999 22 -999
2010-07-29 03:18:07 51°13.66 2°55.961 127.6 -999 302 -999
2010-07-29 03:18:12 51°13.661 2°55.962 127.6 0.1 138 -999
2010-07-29 03:18:17 51°13.661 2°55.962 127.6 0.1 156 -999
2010-07-29 03:18:22 51°13.661 2°55.962 127.6 0.1 132 -999
2010-07-29 03:18:27 51°13.663 2°55.96 127.7 -999 212 -999
2010-07-29 03:18:32 51°13.663 2°55.96 127.8 -999 196 -999
2010-07-29 03:18:37 51°13.663 2°55.96 127.8 -999 167 -999
2010-07-29 03:18:42 51°13.663 2°55.961 127.8 -999 5 -999
2010-07-29 03:18:47 51°13.664 2°55.961 127.9 -999 356 -999
2010-07-29 03:18:52 51°13.663 2°55.961 127.9 -999 323 -999
2010-07-29 03:18:57 51°13.663 2°55.961 127.9 -999 319 -999
2010-07-29 03:19:02 51°13.664 2°55.961 127.9 -999 9 -999
2010-07-29 03:19:07 51°13.664 2°55.961 127.9 -999 46 -999
2010-07-29 03:19:12 51°13.664 2°55.96 127.9 0.1 331 -999
2010-07-29 03:19:17 51°13.664 2°55.96 127.9 -999 301 -999
2010-07-29 03:19:22 51°13.664 2°55.96 127.9 -999 238 -999
2010-07-29 03:19:27 51°13.664 2°55.961 128 0.1 16 -999
2010-07-29 03:19:32 51°13.664 2°55.96 128 -999 242 -999
2010-07-29 03:19:37 51°13.664 2°55.961 128 0.1 180 -999
2010-07-29 03:19:42 51°13.664 2°55.961 128 -999 174 -999
2010-07-29 03:19:47 51°13.664 2°55.961 128 -999 237 -999
2010-07-29 03:19:52 51°13.664 2°55.961 128 -999 277 -999
2010-07-29 03:19:57 51°13.664 2°55.961 127.9 -999 346 -999
2010-07-29 03:20:02 51°13.664 2°55.961 127.8 -999 150 -999
2010-07-29 03:20:07 51°13.664 2°55.961 127.8 -999 64 -999
2010-07-29 03:20:12 51°13.664 2°55.961 127.8 -999 168 -999
2010-07-29 03:20:17 51°13.664 2°55.961 127.8 -999 345 -999
2010-07-29 03:20:22 51°13.664 2°55.961 127.7 -999 329 -999
2010-07-29 03:20:27 51°13.664 2°55.961 127.6 0.1 348 -999
2010-07-29 03:20:32 51°13.664 2°55.961 127.6 -999 277 -999
2010-07-29 03:20:37 51°13.664 2°55.961 127.6 -999 73 -999
2010-07-29 03:20:42 51°13.664 2°55.961 127.6 -999 206 -999
2010-07-29 03:20:47 51°13.664 2°55.961 127.6 -999 260 -999
2010-07-29 03:20:52 51°13.664 2°55.961 127.7 -999 177 -999
2010-07-29 03:20:57 51°13.665 2°55.961 127.7 0.1 150 -999
2010-07-29 03:21:02 51°13.665 2°55.961 127.7 -999 175 -999
2010-07-29 03:21:07 51°13.665 2°55.961 127.7 -999 226 -999
2010-07-29 03:21:12 51°13.665 2°55.961 127.8 -999 277 -999
2010-07-29 03:21:17 51°13.665 2°55.962 127.8 -999 316 -999
2010-07-29 03:21:22 51°13.665 2°55.962 127.8 -999 160 -999
2010-07-29 03:21:27 51°13.666 2°55.962 127.8 -999 2 -999
2010-07-29 03:21:32 51°13.666 2°55.962 127.8 -999 354 -999
2010-07-29 03:21:37 51°13.666 2°55.962 127.8 -999 221 -999
2010-07-29 03:21:42 51°13.666 2°55.962 127.8 -999 244 -999
2010-07-29 03:21:47 51°13.666 2°55.962 127.8 0.1 229 -999
2010-07-29 03:21:52 51°13.666 2°55.962 127.8 0.1 29 -999
2010-07-29 03:21:57 51°13.665 2°55.962 127.8 -999 126 -999
2010-07-29 03:22:02 51°13.665 2°55.962 127.8 0.1 169 -999
2010-07-29 03:22:07 51°13.665 2°55.962 127.8 -999 254 -999
2010-07-29 03:22:12 51°13.665 2°55.962 127.8 0.1 345 -999
2010-07-29 03:22:17 51°13.665 2°55.962 127.8 0.1 328 -999
2010-07-29 03:22:22 51°13.665 2°55.962 127.8 -999 228 -999
2010-07-29 03:22:27 51°13.665 2°55.962 127.8 -999 105 -999
2010-07-29 03:22:32 51°13.665 2°55.962 127.8 -999 333 -999
2010-07-29 03:22:37 51°13.665 2°55.962 127.8 -999 166 -999
2010-07-29 03:22:42 51°13.665 2°55.962 127.8 0.1 7 -999
2010-07-29 03:22:47 51°13.665 2°55.962 127.8 -999 326 -999
2010-07-29 03:22:52 51°13.665 2°55.962 127.8 -999 322 -999
2010-07-29 03:22:57 51°13.665 2°55.962 127.8 -999 152 -999
2010-07-29 03:23:02 51°13.665 2°55.962 127.8 -999 8 -999
2010-07-29 03:23:07 51°13.665 2°55.962 127.8 -999 253 -999
2010-07-29 03:23:12 51°13.665 2°55.962 127.8 -999 273 -999
2010-07-29 03:23:17 51°13.665 2°55.962 127.8 0.1 189 -999
2010-07-29 03:23:22 51°13.665 2°55.962 127.8 -999 231 -999
2010-07-29 03:23:27 51°13.665 2°55.962 127.8 -999 22 -999
2010-07-29 03:23:32 51°13.665 2°55.962 127.8 -999 101 -999
2010-07-29 03:23:37 51°13.664 2°55.962 127.8 -999 178 -999
2010-07-29 03:23:42 51°13.664 2°55.962 127.8 -999 142 -999
2010-07-29 03:23:47 51°13.665 2°55.962 127.8 -999 95 -999
2010-07-29 03:23:52 51°13.665 2°55.962 127.8 -999 155 -999
2010-07-29 03:23:57 51°13.665 2°55.962 127.8 -999 84 -999
2010-07-29 03:24:02 51°13.664 2°55.962 127.8 -999 206 -999
2010-07-29 03:24:07 51°13.664 2°55.962 127.8 -999 345 -999
2010-07-29 03:24:12 51°13.664 2°55.962 127.8 -999 313 -999
2010-07-29 03:24:17 51°13.664 2°55.962 127.8 -999 146 -999
2010-07-29 03:24:22 51°13.664 2°55.962 127.8 -999 302 -999
2010-07-29 03:24:27 51°13.664 2°55.962 127.8 0.1 358 -999
2010-07-29 03:24:32 51°13.664 2°55.962 127.9 -999 179 -999
2010-07-29 03:24:37 51°13.664 2°55.962 127.9 -999 232 -999
2010-07-29 03:24:42 51°13.664 2°55.962 127.9 -999 177 -999
2010-07-29 03:24:47 51°13.664 2°55.962 127.9 -999 207 -999
2010-07-29 03:24:52 51°13.664 2°55.962 127.9 -999 40 -999
2010-07-29 03:24:57 51°13.664 2°55.962 127.9 -999 31 -999
2010-07-29 03:25:02 51°13.664 2°55.961 128 -999 245 -999
2010-07-29 03:25:07 51°13.663 2°55.961 128 -999 179 -999
2010-07-29 03:25:12 51°13.663 2°55.961 128 -999 165 -999
2010-07-29 03:25:17 51°13.663 2°55.961 128 -999 228 -999
2010-07-29 03:25:22 51°13.663 2°55.961 128 -999 215 -999
2010-07-29 03:25:27 51°13.663 2°55.961 128 0.1 63 -999
2010-07-29 03:25:32 51°13.663 2°55.961 128 -999 167 -999
2010-07-29 03:25:37 51°13.663 2°55.961 128 -999 261 -999
2010-07-29 03:25:42 51°13.663 2°55.961 128.1 -999 261 -999
2010-07-29 03:25:47 51°13.663 2°55.961 128.1 0.1 352 -999
2010-07-29 03:25:52 51°13.663 2°55.961 128.1 -999 358 -999
2010-07-29 03:25:57 51°13.662 2°55.961 128.1 -999 182 -999
2010-07-29 03:26:02 51°13.662 2°55.961 128.1 0.1 210 -999
2010-07-29 03:26:07 51°13.662 2°55.961 128.1 -999 303 -999
2010-07-29 03:26:12 51°13.662 2°55.961 128.1 -999 10 -999
2010-07-29 03:26:17 51°13.662 2°55.961 128.1 -999 334 -999
2010-07-29 03:26:22 51°13.662 2°55.961 128.1 -999 234 -999
2010-07-29 03:26:27 51°13.662 2°55.961 128.1 0.1 336 -999
2010-07-29 03:26:32 51°13.662 2°55.961 128.1 -999 168 -999
2010-07-29 03:26:37 51°13.662 2°55.961 128.1 -999 356 -999
2010-07-29 03:26:42 51°13.662 2°55.961 128.1 -999 339 -999
2010-07-29 03:26:47 51°13.662 2°55.961 128.1 -999 176 -999
2010-07-29 03:26:52 51°13.662 2°55.961 128.1 0.1 184 -999
2010-07-29 03:26:57 51°13.662 2°55.961 128.1 -999 95 -999
2010-07-29 03:27:02 51°13.662 2°55.96 128.1 0.1 215 -999
2010-07-29 03:27:07 51°13.662 2°55.961 128.1 -999 213 -999
2010-07-29 03:27:12 51°13.662 2°55.961 128.1 -999 196 -999
2010-07-29 03:27:17 51°13.661 2°55.961 128.1 -999 331 -999
2010-07-29 03:27:22 51°13.661 2°55.961 128.1 -999 213 -999
2010-07-29 03:27:27 51°13.661 2°55.961 128.2 -999 289 -999
2010-07-29 03:27:32 51°13.661 2°55.961 128.2 -999 114 -999
2010-07-29 03:27:37 51°13.661 2°55.961 128.2 -999 139 -999
2010-07-29 03:27:42 51°13.66 2°55.96 128.2 -999 269 -999
2010-07-29 03:27:47 51°13.66 2°55.961 128.2 0.1 351 -999
2010-07-29 03:27:52 51°13.66 2°55.961 128.1 -999 345 -999
2010-07-29 03:27:57 51°13.66 2°55.961 128 -999 345 -999
2010-07-29 03:28:02 51°13.66 2°55.961 128 -999 264 -999
2010-07-29 03:28:07 51°13.66 2°55.961 128 0.1 316 -999
2010-07-29 03:28:12 51°13.66 2°55.961 128 -999 32 -999
2010-07-29 03:28:17 51°13.66 2°55.961 127.9 -999 119 -999